createdAt,value
2023-03-08T00:00:57.941Z,6.63
2023-03-08T00:06:23.427Z,7.10
2023-03-08T00:11:48.080Z,6.96
2023-03-08T00:17:13.422Z,4.84
2023-03-08T00:22:41.023Z,3.35
2023-03-08T00:28:04.638Z,4.56
2023-03-08T00:33:29.431Z,5.92
2023-03-08T00:38:53.942Z,6.59
2023-03-08T00:44:18.729Z,6.96
2023-03-08T00:49:42.937Z,6.60
2023-03-08T00:55:07.032Z,4.49
2023-03-08T01:00:31.993Z,4.92
2023-03-08T01:05:59.729Z,5.71
2023-03-08T01:11:27.256Z,5.80
2023-03-08T01:16:51.525Z,5.77
2023-03-08T01:22:15.778Z,5.81
2023-03-08T01:27:39.548Z,5.66
2023-03-08T01:33:03.901Z,5.72
2023-03-08T01:38:27.934Z,5.82
2023-03-08T01:43:54.354Z,5.92
2023-03-08T01:49:33.679Z,6.00
2023-03-08T01:55:04.005Z,6.13
2023-03-08T02:00:27.854Z,6.16
2023-03-08T02:05:51.912Z,6.16
2023-03-08T02:11:21.255Z,6.19
2023-03-08T02:16:47.455Z,6.11
2023-03-08T02:22:14.407Z,6.06
2023-03-08T02:27:38.478Z,5.92
2023-03-08T02:33:02.470Z,5.85
2023-03-08T02:38:26.063Z,5.62
2023-03-08T02:43:49.737Z,5.56
2023-03-08T02:49:14.324Z,5.67
2023-03-08T02:54:39.022Z,5.67
2023-03-08T03:00:05.864Z,5.62
2023-03-08T03:05:30.303Z,5.68
2023-03-08T03:10:55.668Z,5.78
2023-03-08T03:16:19.661Z,5.69
2023-03-08T03:21:43.713Z,5.62
2023-03-08T03:27:08.408Z,5.71
2023-03-08T03:32:33.793Z,5.65
2023-03-08T03:37:57.772Z,5.69
2023-03-08T03:43:22.916Z,5.67
2023-03-08T03:48:47.777Z,5.69
2023-03-08T03:54:13.813Z,5.84
2023-03-08T03:59:39.175Z,5.80
2023-03-08T04:05:03.998Z,5.67
2023-03-08T04:10:28.528Z,5.73
2023-03-08T04:15:53.298Z,5.82
2023-03-08T04:21:17.412Z,5.82
2023-03-08T04:26:41.802Z,5.83
2023-03-08T04:32:09.851Z,5.75
2023-03-08T04:37:47.741Z,5.81
2023-03-08T04:43:14.164Z,5.87
2023-03-08T04:48:38.694Z,5.92
2023-03-08T04:54:05.143Z,6.04
2023-03-08T04:59:31.044Z,6.10
2023-03-08T05:04:57.803Z,6.12
2023-03-08T05:10:22.068Z,6.04
2023-03-08T05:15:47.270Z,5.97
2023-03-08T05:21:14.865Z,6.04
2023-03-08T05:26:39.910Z,6.08
2023-03-08T05:32:06.961Z,6.16
2023-03-08T05:37:31.903Z,5.89
2023-03-08T05:42:58.423Z,3.90
2023-03-08T05:48:24.030Z,3.28
2023-03-08T05:53:48.072Z,5.12
2023-03-08T05:59:13.857Z,6.12
2023-03-08T06:04:40.220Z,6.76
2023-03-08T06:10:05.513Z,7.07
2023-03-08T06:15:29.574Z,5.88
2023-03-08T06:21:01.996Z,3.64
2023-03-08T06:26:27.270Z,2.23
2023-03-08T06:31:51.798Z,2.78
2023-03-08T06:37:17.931Z,4.90
2023-03-08T06:42:42.540Z,5.97
2023-03-08T06:48:09.053Z,6.43
2023-03-08T06:53:36.535Z,6.74
2023-03-08T06:59:01.957Z,6.95
2023-03-08T07:04:25.940Z,5.76
2023-03-08T07:09:50.648Z,4.17
2023-03-08T07:15:17.055Z,5.46
2023-03-08T07:20:41.127Z,6.30
2023-03-08T07:26:09.621Z,6.54
2023-03-08T07:31:36.599Z,6.70
2023-03-08T07:37:00.629Z,6.55
2023-03-08T07:42:25.032Z,4.85
2023-03-08T07:47:53.196Z,5.76
2023-03-08T07:53:17.135Z,6.44
2023-03-08T07:58:41.394Z,6.71
2023-03-08T08:04:06.322Z,6.73
2023-03-08T08:09:30.874Z,5.04
2023-03-08T08:14:55.389Z,4.81
2023-03-08T08:20:19.694Z,6.37
2023-03-08T08:25:46.953Z,7.08
2023-03-08T08:31:14.490Z,6.94
2023-03-08T08:36:38.523Z,5.03
2023-03-08T08:42:04.037Z,4.86
2023-03-08T08:47:30.235Z,6.56
2023-03-08T08:52:54.533Z,7.28
2023-03-08T08:58:18.608Z,6.35
2023-03-08T09:03:42.929Z,4.86
2023-03-08T09:09:07.618Z,6.17
2023-03-08T09:14:31.803Z,7.38
2023-03-08T09:19:56.856Z,7.45
2023-03-08T09:25:24.491Z,5.91
2023-03-08T09:30:48.506Z,4.98
2023-03-08T09:36:12.944Z,4.45
2023-03-08T09:41:46.211Z,4.33
2023-03-08T09:47:43.068Z,6.59
2023-03-08T09:53:27.519Z,8.46
2023-03-08T09:59:00.977Z,9.52
2023-03-08T10:04:47.375Z,9.13
2023-03-08T10:10:31.201Z,6.94
2023-03-08T10:16:04.442Z,5.63
2023-03-08T10:21:33.241Z,5.01
2023-03-08T10:27:34.113Z,4.69
2023-03-08T10:33:01.009Z,6.36
2023-03-08T10:38:29.040Z,8.69
2023-03-08T10:43:56.078Z,9.66
2023-03-08T10:49:23.599Z,10.21
2023-03-08T10:54:51.618Z,9.88
2023-03-08T11:00:36.943Z,8.16
2023-03-08T11:06:05.270Z,7.00
2023-03-08T11:11:29.281Z,6.25
2023-03-08T11:17:07.245Z,5.68
2023-03-08T11:22:55.709Z,5.25
2023-03-08T11:28:39.705Z,4.97
2023-03-08T11:34:29.686Z,4.82
2023-03-08T11:40:15.506Z,4.61
2023-03-08T11:46:06.916Z,4.37
2023-03-08T11:52:00.276Z,4.20
2023-03-08T11:57:26.769Z,5.40
2023-03-08T12:02:51.681Z,7.91
2023-03-08T12:08:24.850Z,9.21
2023-03-08T12:13:55.584Z,9.88
2023-03-08T12:19:46.572Z,10.41
2023-03-08T12:25:33.755Z,10.71
2023-03-08T12:31:04.114Z,9.93
2023-03-08T12:36:39.764Z,7.96
2023-03-08T12:42:10.435Z,6.61
2023-03-08T12:47:34.979Z,5.71
2023-03-08T12:52:59.184Z,5.11
2023-03-08T12:58:23.167Z,5.71
2023-03-08T13:03:47.156Z,8.04
2023-03-08T13:09:43.407Z,9.25
2023-03-08T13:15:14.270Z,9.89
2023-03-08T13:20:42.421Z,10.41
2023-03-08T13:26:49.303Z,10.76
2023-03-08T13:32:20.142Z,10.60
2023-03-08T13:37:52.908Z,8.63
2023-03-08T13:43:16.930Z,7.07
2023-03-08T13:48:45.042Z,6.07
2023-03-08T13:54:16.810Z,5.38
2023-03-08T13:59:49.474Z,6.01
2023-03-08T14:05:18.228Z,8.16
2023-03-08T14:10:45.987Z,9.08
2023-03-08T14:16:24.999Z,9.69
2023-03-08T14:21:55.199Z,10.08
2023-03-08T14:27:19.858Z,10.24
2023-03-08T14:33:02.375Z,10.36
2023-03-08T14:38:31.743Z,10.40
2023-03-08T14:43:55.573Z,9.88
2023-03-08T14:49:24.223Z,7.79
2023-03-08T14:54:49.380Z,6.25
2023-03-08T15:00:16.020Z,5.27
2023-03-08T15:05:40.408Z,4.53
2023-03-08T15:11:04.532Z,5.10
2023-03-08T15:16:28.609Z,7.25
2023-03-08T15:21:53.477Z,8.31
2023-03-08T15:27:18.098Z,9.03
2023-03-08T15:32:43.094Z,9.60
2023-03-08T15:38:08.271Z,10.14
2023-03-08T15:43:33.700Z,10.33
2023-03-08T15:48:58.397Z,10.46
2023-03-08T15:54:22.529Z,9.90
2023-03-08T15:59:47.058Z,7.97
2023-03-08T16:05:14.100Z,6.58
2023-03-08T16:10:41.605Z,5.66
2023-03-08T16:16:07.017Z,5.03
2023-03-08T16:21:31.385Z,4.50
2023-03-08T16:26:56.120Z,5.08
2023-03-08T16:32:20.971Z,7.49
2023-03-08T16:37:45.264Z,8.78
2023-03-08T16:43:09.141Z,9.61
2023-03-08T16:48:33.739Z,10.10
2023-03-08T16:53:58.398Z,10.30
2023-03-08T16:59:22.768Z,10.39
2023-03-08T17:04:49.087Z,10.45
2023-03-08T17:10:13.630Z,10.55
2023-03-08T17:15:43.324Z,10.60
2023-03-08T17:21:07.760Z,10.58
2023-03-08T17:26:31.681Z,10.58
2023-03-08T17:31:57.078Z,10.19
2023-03-08T17:37:23.532Z,7.82
2023-03-08T17:42:48.462Z,6.10
2023-03-08T17:48:12.383Z,4.97
2023-03-08T17:53:38.028Z,5.42
2023-03-08T17:59:03.098Z,7.49
2023-03-08T18:04:26.965Z,8.63
2023-03-08T18:09:52.226Z,9.40
2023-03-08T18:15:16.638Z,9.93
2023-03-08T18:20:41.031Z,10.24
2023-03-08T18:26:05.269Z,10.48
2023-03-08T18:31:31.294Z,10.70
2023-03-08T18:36:59.094Z,10.72
2023-03-08T18:42:24.506Z,10.82
2023-03-08T18:47:51.173Z,10.35
2023-03-08T18:53:18.870Z,8.50
2023-03-08T18:58:43.064Z,7.19
2023-03-08T19:04:08.427Z,6.23
2023-03-08T19:09:32.406Z,5.33
2023-03-08T19:14:57.008Z,4.62
2023-03-08T19:20:21.396Z,4.22
2023-03-08T19:26:04.058Z,5.10
2023-03-08T19:31:29.085Z,7.72
2023-03-08T19:36:53.772Z,8.96
2023-03-08T19:42:18.051Z,9.48
2023-03-08T19:47:43.617Z,9.97
2023-03-08T19:53:09.421Z,10.34
2023-03-08T19:58:34.416Z,10.54
2023-03-08T20:03:58.852Z,10.58
2023-03-08T20:09:24.146Z,10.76
2023-03-08T20:14:48.653Z,11.02
2023-03-08T20:20:14.926Z,10.37
2023-03-08T20:25:42.999Z,8.23
2023-03-08T20:31:11.592Z,6.93
2023-03-08T20:36:36.370Z,6.08
2023-03-08T20:42:00.904Z,5.38
2023-03-08T20:47:24.895Z,4.75
2023-03-08T20:52:50.013Z,5.27
2023-03-08T20:58:14.931Z,7.49
2023-03-08T21:03:39.193Z,8.76
2023-03-08T21:09:03.423Z,9.61
2023-03-08T21:14:29.328Z,9.97
2023-03-08T21:19:54.481Z,10.35
2023-03-08T21:25:19.443Z,10.61
2023-03-08T21:30:44.475Z,10.71
2023-03-08T21:36:09.026Z,10.19
2023-03-08T21:41:36.044Z,8.17
2023-03-08T21:47:00.395Z,6.45
2023-03-08T21:52:24.963Z,5.41
2023-03-08T21:57:49.979Z,4.59
2023-03-08T22:03:14.388Z,4.15
2023-03-08T22:08:39.052Z,4.94
2023-03-08T22:14:02.906Z,7.57
2023-03-08T22:19:27.313Z,8.96
2023-03-08T22:24:51.784Z,9.90
2023-03-08T22:30:17.245Z,10.37
2023-03-08T22:35:48.718Z,10.74
2023-03-08T22:41:15.185Z,11.12
2023-03-08T22:46:39.422Z,11.31
2023-03-08T22:52:04.916Z,10.27
2023-03-08T22:57:29.020Z,7.89
2023-03-08T23:02:57.958Z,6.29
2023-03-08T23:08:24.277Z,5.16
2023-03-08T23:13:48.838Z,4.51
2023-03-08T23:19:16.193Z,4.07
2023-03-08T23:25:23.500Z,4.84
2023-03-08T23:30:48.312Z,7.55
2023-03-08T23:36:14.409Z,8.62
2023-03-08T23:41:40.987Z,9.38
2023-03-08T23:47:05.864Z,9.89
2023-03-08T23:52:29.817Z,10.22
2023-03-08T23:57:53.656Z,10.21
